createdAt,value
2018-06-27T00:01:31.225Z,8.93
2018-06-27T00:04:00.365Z,8.07
2018-06-27T00:06:28.636Z,6.85
2018-06-27T00:08:56.986Z,6.83
2018-06-27T00:11:25.031Z,8.10
2018-06-27T00:13:53.304Z,8.53
2018-06-27T00:16:21.581Z,8.20
2018-06-27T00:18:49.917Z,7.72
2018-06-27T00:21:18.200Z,8.15
2018-06-27T00:23:46.545Z,8.67
2018-06-27T00:26:14.769Z,8.47
2018-06-27T00:28:43.031Z,8.87
2018-06-27T00:31:11.312Z,8.93
2018-06-27T00:33:39.577Z,9.50
2018-06-27T00:36:07.823Z,9.00
2018-06-27T00:38:36.080Z,9.07
2018-06-27T00:41:04.310Z,10.90
2018-06-27T00:43:32.550Z,11.80
2018-06-27T00:46:00.853Z,10.50
2018-06-27T00:48:29.155Z,10.40
2018-06-27T00:50:57.412Z,8.90
2018-06-27T00:53:31.214Z,9.50
2018-06-27T00:55:59.636Z,9.40
2018-06-27T00:58:27.946Z,9.63
2018-06-27T01:00:55.912Z,9.23
2018-06-27T01:03:24.188Z,8.35
2018-06-27T01:05:52.509Z,8.63
2018-06-27T01:08:20.867Z,8.55
2018-06-27T01:10:49.115Z,8.58
2018-06-27T01:13:17.334Z,7.90
2018-06-27T01:15:45.591Z,7.37
2018-06-27T01:18:13.994Z,7.80
2018-06-27T01:20:42.264Z,7.58
2018-06-27T01:23:10.598Z,8.17
2018-06-27T01:25:38.917Z,8.13
2018-06-27T01:28:07.360Z,8.00
2018-06-27T01:30:35.677Z,8.83
2018-06-27T01:33:04.049Z,9.80
2018-06-27T01:35:33.058Z,8.30
2018-06-27T01:38:01.334Z,8.90
2018-06-27T01:40:29.563Z,9.25
2018-06-27T01:43:01.699Z,8.62
2018-06-27T01:45:29.931Z,9.50
2018-06-27T01:47:57.925Z,8.30
2018-06-27T01:50:26.192Z,10.20
2018-06-27T01:52:54.673Z,8.30
2018-06-27T01:55:23.290Z,9.25
2018-06-27T01:57:51.533Z,7.53
2018-06-27T02:00:19.512Z,7.07
2018-06-27T02:02:47.831Z,9.30
2018-06-27T02:05:16.129Z,9.03
2018-06-27T02:07:44.415Z,8.17
2018-06-27T02:10:12.604Z,8.60
2018-06-27T02:12:40.869Z,9.67
2018-06-27T02:15:09.066Z,9.33
2018-06-27T02:17:37.776Z,9.93
2018-06-27T02:20:06.005Z,8.25
2018-06-27T02:22:34.227Z,8.23
2018-06-27T02:25:02.471Z,9.47
2018-06-27T02:27:30.946Z,8.63
2018-06-27T02:30:11.193Z,8.60
2018-06-27T02:32:39.487Z,9.40
2018-06-27T02:35:08.017Z,8.83
2018-06-27T02:37:36.229Z,8.25
2018-06-27T02:40:04.526Z,8.10
2018-06-27T02:42:33.724Z,8.73
2018-06-27T02:45:05.888Z,9.33
2018-06-27T02:47:35.069Z,8.50
2018-06-27T02:50:03.571Z,8.60
2018-06-27T02:52:32.445Z,8.73
2018-06-27T02:55:00.728Z,8.30
2018-06-27T02:57:29.208Z,9.35
2018-06-27T02:59:57.448Z,8.90
2018-06-27T03:02:25.716Z,8.47
2018-06-27T03:04:54.147Z,8.55
2018-06-27T03:07:22.425Z,9.25
2018-06-27T03:09:50.637Z,8.33
2018-06-27T03:12:18.867Z,8.64
2018-06-27T03:14:50.789Z,8.63
2018-06-27T03:17:19.285Z,8.18
2018-06-27T03:19:47.549Z,8.77
2018-06-27T03:22:15.856Z,8.37
2018-06-27T03:24:44.105Z,8.15
2018-06-27T03:27:12.608Z,8.50
2018-06-27T03:29:40.881Z,8.00
2018-06-27T03:32:09.114Z,7.70
2018-06-27T03:34:37.360Z,7.70
2018-06-27T03:37:08.424Z,9.60
2018-06-27T03:39:36.683Z,8.30
2018-06-27T03:42:04.924Z,9.37
2018-06-27T03:44:34.421Z,7.62
2018-06-27T03:47:02.620Z,8.17
2018-06-27T03:49:30.896Z,7.90
2018-06-27T03:52:00.210Z,8.00
2018-06-27T03:54:29.789Z,6.50
2018-06-27T03:56:59.344Z,7.73
2018-06-27T03:59:27.671Z,7.45
2018-06-27T04:01:58.976Z,7.23
2018-06-27T04:04:27.216Z,7.20
2018-06-27T04:06:55.491Z,7.77
2018-06-27T04:09:24.889Z,7.00
2018-06-27T04:11:53.368Z,6.43
2018-06-27T04:14:21.716Z,7.40
2018-06-27T04:16:50.143Z,7.15
2018-06-27T04:19:18.421Z,8.50
2018-06-27T04:21:46.732Z,6.43
2018-06-27T04:24:14.680Z,7.23
2018-06-27T04:26:42.993Z,7.10
2018-06-27T04:29:11.265Z,6.33
2018-06-27T04:31:43.153Z,6.22
2018-06-27T04:34:11.740Z,5.87
2018-06-27T04:36:40.026Z,6.30
2018-06-27T04:39:09.669Z,5.93
2018-06-27T04:41:40.616Z,5.73
2018-06-27T04:44:09.247Z,5.80
2018-06-27T04:46:40.987Z,5.67
2018-06-27T04:49:09.248Z,5.00
2018-06-27T04:51:37.772Z,5.83
2018-06-27T04:54:06.117Z,6.75
2018-06-27T04:56:34.723Z,5.75
2018-06-27T04:59:03.017Z,6.90
2018-06-27T05:01:31.596Z,6.57
2018-06-27T05:04:00.488Z,5.28
2018-06-27T05:06:30.390Z,4.40
2018-06-27T05:08:58.696Z,4.43
2018-06-27T05:11:27.437Z,5.60
2018-06-27T05:13:56.155Z,4.60
2018-06-27T05:16:24.937Z,5.70
2018-06-27T05:18:56.506Z,4.60
2018-06-27T05:21:25.405Z,5.10
2018-06-27T05:23:53.653Z,5.17
2018-06-27T05:26:21.954Z,4.75
2018-06-27T05:28:50.404Z,4.05
2018-06-27T05:31:19.680Z,4.90
2018-06-27T05:33:48.011Z,5.60
2018-06-27T05:36:16.288Z,5.43
2018-06-27T05:38:46.752Z,4.45
2018-06-27T05:41:15.433Z,4.28
2018-06-27T05:43:43.693Z,5.00
2018-06-27T05:46:12.001Z,4.65
2018-06-27T05:48:40.634Z,5.00
2018-06-27T05:51:09.503Z,5.20
2018-06-27T05:53:37.957Z,4.85
2018-06-27T05:56:06.369Z,3.90
2018-06-27T05:58:35.611Z,4.27
2018-06-27T06:01:03.917Z,4.37
2018-06-27T06:03:32.436Z,4.30
2018-06-27T06:06:00.704Z,3.63
2018-06-27T06:18:14.197Z,4.30
2018-06-27T06:20:42.469Z,4.70
2018-06-27T06:23:10.862Z,4.60
2018-06-27T06:25:38.843Z,5.63
2018-06-27T06:28:07.205Z,5.00
2018-06-27T06:30:35.595Z,4.78
2018-06-27T06:33:04.029Z,4.20
2018-06-27T06:35:33.261Z,4.33
2018-06-27T06:38:01.556Z,4.60
2018-06-27T06:40:29.835Z,5.20
2018-06-27T06:42:57.887Z,4.27
2018-06-27T06:45:26.176Z,4.27
2018-06-27T06:47:57.617Z,3.97
2018-06-27T06:50:26.103Z,4.37
2018-06-27T06:52:55.498Z,4.27
2018-06-27T06:55:23.844Z,4.33
2018-06-27T06:57:53.688Z,4.77
2018-06-27T07:00:22.128Z,5.20
2018-06-27T07:02:50.433Z,4.10
2018-06-27T07:05:18.720Z,4.80
2018-06-27T07:07:47.096Z,3.98
2018-06-27T07:10:16.209Z,3.90
2018-06-27T07:12:44.641Z,3.40
2018-06-27T07:15:13.773Z,3.35
2018-06-27T07:17:43.006Z,3.23
2018-06-27T07:20:11.353Z,3.70
2018-06-27T07:22:39.736Z,2.83
2018-06-27T07:25:08.176Z,2.52
2018-06-27T07:27:37.217Z,2.27
2018-06-27T07:30:05.560Z,2.20
2018-06-27T07:32:33.858Z,2.90
2018-06-27T07:35:03.068Z,2.30
2018-06-27T07:37:31.329Z,2.50
2018-06-27T07:39:59.811Z,1.90
2018-06-27T07:42:28.133Z,1.87
2018-06-27T07:44:56.396Z,2.47
2018-06-27T07:47:25.158Z,1.93
2018-06-27T07:49:53.473Z,2.00
2018-06-27T07:52:22.428Z,2.05
2018-06-27T07:54:50.700Z,1.80
2018-06-27T07:57:18.989Z,2.05
2018-06-27T07:59:47.470Z,2.40
2018-06-27T08:02:15.814Z,1.65
2018-06-27T08:04:44.084Z,2.20
2018-06-27T08:07:12.385Z,1.83
2018-06-27T08:09:41.186Z,2.40
2018-06-27T08:12:09.458Z,2.10
2018-06-27T08:14:37.726Z,2.50
2018-06-27T08:17:06.004Z,2.20
2018-06-27T08:19:37.813Z,2.07
2018-06-27T08:22:06.289Z,2.20
2018-06-27T08:24:34.593Z,1.67
2018-06-27T08:27:02.815Z,2.60
2018-06-27T08:29:31.176Z,1.80
2018-06-27T08:31:59.504Z,2.63
2018-06-27T08:34:27.540Z,2.37
2018-06-27T08:36:55.846Z,2.93
2018-06-27T08:39:24.188Z,1.90
2018-06-27T08:41:52.443Z,2.22
2018-06-27T08:44:20.787Z,2.10
2018-06-27T08:46:49.040Z,1.87
2018-06-27T08:49:17.301Z,1.67
2018-06-27T08:51:49.532Z,1.77
2018-06-27T08:54:17.838Z,1.90
2018-06-27T08:56:47.041Z,2.55
2018-06-27T08:59:15.251Z,2.13
2018-06-27T09:01:43.533Z,1.87
2018-06-27T09:04:12.124Z,2.20
2018-06-27T09:06:43.704Z,1.50
2018-06-27T09:09:13.184Z,1.90
2018-06-27T09:11:42.076Z,2.10
2018-06-27T09:14:10.389Z,1.90
2018-06-27T09:16:38.664Z,1.83
2018-06-27T09:19:08.049Z,1.70
2018-06-27T09:21:36.408Z,1.40
2018-06-27T09:24:04.674Z,1.15
2018-06-27T09:26:32.876Z,1.95
2018-06-27T09:29:01.161Z,1.40
2018-06-27T09:31:29.310Z,1.30
2018-06-27T09:33:57.552Z,1.80
2018-06-27T09:36:25.784Z,1.73
2018-06-27T09:38:54.438Z,1.30
2018-06-27T09:41:22.649Z,1.27
2018-06-27T09:43:51.617Z,1.30
2018-06-27T09:46:20.185Z,3.33
2018-06-27T09:48:48.477Z,1.80
2018-06-27T09:51:16.721Z,2.30
2018-06-27T09:53:44.968Z,1.47
2018-06-27T09:56:13.548Z,1.42
2018-06-27T09:58:41.820Z,1.40
2018-06-27T10:01:10.129Z,1.40
2018-06-27T10:03:38.112Z,1.47
2018-06-27T10:06:06.352Z,1.47
2018-06-27T10:08:34.673Z,1.87
2018-06-27T10:11:03.008Z,1.87
2018-06-27T10:13:31.236Z,1.43
2018-06-27T10:15:59.630Z,7.15
2018-06-27T10:18:28.253Z,1.47
2018-06-27T10:20:56.521Z,1.87
2018-06-27T10:23:25.716Z,1.37
2018-06-27T10:25:54.010Z,1.50
2018-06-27T10:28:22.399Z,1.70
2018-06-27T10:30:50.555Z,1.50
2018-06-27T10:33:19.961Z,1.27
2018-06-27T10:35:48.340Z,1.42
2018-06-27T10:38:16.630Z,1.73
2018-06-27T10:40:45.811Z,1.70
2018-06-27T10:43:14.294Z,1.37
2018-06-27T10:45:42.760Z,1.50
2018-06-27T10:48:12.061Z,1.70
2018-06-27T10:50:40.646Z,1.30
2018-06-27T10:53:08.964Z,1.70
2018-06-27T10:55:37.513Z,1.70
2018-06-27T10:58:05.927Z,1.57
2018-06-27T11:00:34.977Z,1.57
2018-06-27T11:03:03.461Z,1.33
2018-06-27T11:05:31.856Z,1.40
2018-06-27T11:08:00.641Z,1.60
2018-06-27T11:10:29.826Z,1.42
2018-06-27T11:12:58.105Z,1.70
2018-06-27T11:15:26.956Z,2.20
2018-06-27T11:17:55.581Z,1.77
2018-06-27T11:20:23.885Z,1.43
2018-06-27T11:22:52.176Z,1.40
2018-06-27T11:25:20.177Z,1.83
2018-06-27T11:27:48.465Z,1.37
2018-06-27T11:30:16.797Z,1.67
2018-06-27T11:32:45.331Z,1.80
2018-06-27T11:35:13.668Z,2.10
2018-06-27T11:37:42.044Z,1.50
2018-06-27T11:40:10.373Z,1.70
2018-06-27T11:42:39.549Z,2.03
2018-06-27T11:45:07.857Z,1.63
2018-06-27T11:47:36.188Z,1.87
2018-06-27T11:50:04.812Z,1.87
2018-06-27T11:52:33.188Z,1.70
2018-06-27T11:55:06.787Z,1.90
2018-06-27T11:57:35.169Z,1.62
2018-06-27T12:00:03.590Z,1.97
2018-06-27T12:02:31.897Z,1.70
2018-06-27T12:05:02.783Z,2.20
2018-06-27T12:07:31.042Z,1.80
2018-06-27T12:09:59.861Z,1.60
2018-06-27T12:12:28.165Z,1.70
2018-06-27T12:14:56.638Z,1.70
2018-06-27T12:17:25.268Z,1.60
2018-06-27T12:19:53.528Z,1.60
2018-06-27T12:22:21.651Z,2.40
2018-06-27T12:24:50.172Z,2.07
2018-06-27T12:27:18.628Z,1.77
2018-06-27T12:29:46.949Z,2.03
2018-06-27T12:32:15.196Z,2.40
2018-06-27T12:34:43.882Z,1.50
2018-06-27T12:37:12.353Z,2.23
2018-06-27T12:39:40.712Z,2.50
2018-06-27T12:42:09.557Z,1.90
2018-06-27T12:44:38.125Z,1.97
2018-06-27T12:47:07.139Z,2.02
2018-06-27T12:49:35.502Z,2.10
2018-06-27T12:52:06.408Z,2.35
2018-06-27T12:54:35.128Z,1.87
2018-06-27T12:57:03.135Z,2.30
2018-06-27T12:59:32.058Z,2.77
2018-06-27T13:02:00.352Z,2.50
2018-06-27T13:04:28.718Z,2.10
2018-06-27T13:06:57.140Z,2.70
2018-06-27T13:09:27.546Z,2.10
2018-06-27T13:11:55.909Z,1.87
2018-06-27T13:14:25.224Z,2.53
2018-06-27T13:16:53.740Z,2.05
2018-06-27T13:19:22.444Z,1.87
2018-06-27T13:21:50.905Z,2.10
2018-06-27T13:24:20.076Z,2.60
2018-06-27T13:26:52.553Z,2.50
2018-06-27T13:29:20.944Z,2.13
2018-06-27T13:31:49.319Z,2.20
2018-06-27T13:34:17.597Z,2.20
2018-06-27T13:36:45.933Z,2.37
2018-06-27T13:39:15.476Z,2.25
2018-06-27T13:41:44.227Z,2.07
2018-06-27T13:44:12.501Z,1.95
2018-06-27T13:46:41.105Z,2.23
2018-06-27T13:49:10.498Z,1.92
2018-06-27T13:51:38.520Z,1.87
2018-06-27T13:54:06.797Z,1.70
2018-06-27T13:56:34.859Z,1.53
2018-06-27T13:59:03.353Z,2.00
2018-06-27T14:01:31.602Z,1.93
2018-06-27T14:03:59.924Z,1.90
2018-06-27T14:06:28.624Z,2.10
2018-06-27T14:08:56.922Z,1.77
2018-06-27T14:11:28.304Z,1.90
2018-06-27T14:13:56.748Z,1.97
2018-06-27T14:16:25.066Z,1.70
2018-06-27T14:18:53.938Z,1.90
2018-06-27T14:21:22.318Z,1.90
2018-06-27T14:23:50.581Z,1.87
2018-06-27T14:26:26.466Z,2.25
2018-06-27T14:28:55.794Z,2.47
2018-06-27T14:31:24.085Z,2.13
2018-06-27T14:33:52.374Z,2.00
2018-06-27T14:36:20.437Z,1.98
2018-06-27T14:38:48.724Z,1.77
2018-06-27T14:41:29.447Z,1.77
2018-06-27T14:43:57.902Z,1.40
2018-06-27T14:46:26.138Z,2.00
2018-06-27T14:48:54.844Z,1.57
2018-06-27T14:51:23.111Z,1.65
2018-06-27T14:53:52.229Z,2.40
2018-06-27T14:56:23.404Z,2.00
2018-06-27T14:58:52.762Z,2.20
2018-06-27T15:01:21.057Z,2.33
2018-06-27T15:03:49.309Z,1.43
2018-06-27T15:06:17.813Z,2.20
2018-06-27T15:08:46.109Z,2.03
2018-06-27T15:11:26.657Z,1.70
2018-06-27T15:13:55.116Z,2.47
2018-06-27T15:16:23.766Z,2.03
2018-06-27T15:18:52.553Z,1.87
2018-06-27T15:21:21.049Z,2.08
2018-06-27T15:23:49.831Z,1.90
2018-06-27T15:26:18.020Z,2.27
2018-06-27T15:28:46.283Z,2.40
2018-06-27T15:31:14.609Z,1.60
2018-06-27T15:33:43.058Z,1.63
2018-06-27T15:36:11.514Z,1.50
2018-06-27T15:38:39.769Z,1.40
2018-06-27T15:41:08.200Z,1.97
2018-06-27T15:43:36.239Z,2.60
2018-06-27T15:46:04.540Z,2.00
2018-06-27T15:48:33.717Z,1.53
2018-06-27T15:51:02.117Z,1.60
2018-06-27T15:53:30.474Z,1.33
2018-06-27T15:55:59.397Z,1.37
2018-06-27T15:58:31.698Z,1.53
2018-06-27T16:01:00.278Z,1.70
2018-06-27T16:03:29.191Z,1.40
2018-06-27T16:05:57.440Z,2.10
2018-06-27T16:08:25.734Z,1.70
2018-06-27T16:10:54.041Z,1.75
2018-06-27T16:13:22.241Z,1.40
2018-06-27T16:15:50.488Z,1.77
2018-06-27T16:18:18.799Z,2.00
2018-06-27T16:20:47.171Z,1.70
2018-06-27T16:23:15.372Z,1.37
2018-06-27T16:25:43.713Z,1.15
2018-06-27T16:28:15.714Z,1.40
2018-06-27T16:30:44.169Z,1.35
2018-06-27T16:33:13.517Z,1.10
2018-06-27T16:35:41.905Z,1.00
2018-06-27T16:38:10.423Z,1.37
2018-06-27T16:40:38.913Z,1.20
2018-06-27T16:43:07.293Z,1.30
2018-06-27T16:45:35.247Z,1.50
2018-06-27T16:48:03.506Z,2.07
2018-06-27T16:50:31.816Z,1.30
2018-06-27T16:53:00.011Z,1.67
2018-06-27T16:55:28.798Z,2.00
2018-06-27T16:58:00.273Z,1.97
2018-06-27T17:00:29.042Z,2.60
2018-06-27T17:02:57.333Z,1.43
2018-06-27T17:05:25.370Z,2.37
2018-06-27T17:07:53.670Z,1.77
2018-06-27T17:10:21.958Z,1.92
2018-06-27T17:12:50.349Z,1.90
2018-06-27T17:15:18.706Z,1.80
2018-06-27T17:17:47.065Z,1.80
2018-06-27T17:20:15.352Z,2.47
2018-06-27T17:22:43.636Z,1.87
2018-06-27T17:25:11.974Z,1.60
2018-06-27T17:27:40.404Z,2.00
2018-06-27T17:30:08.729Z,1.83
2018-06-27T17:32:36.975Z,1.98
2018-06-27T17:35:04.989Z,1.80
2018-06-27T17:37:36.262Z,1.50
2018-06-27T17:40:04.961Z,1.73
2018-06-27T17:42:33.213Z,1.57
2018-06-27T17:45:01.547Z,2.70
2018-06-27T17:47:29.769Z,1.90
2018-06-27T17:49:58.045Z,1.47
2018-06-27T17:52:26.357Z,1.87
2018-06-27T17:54:55.497Z,2.03
2018-06-27T17:57:24.696Z,1.80
2018-06-27T17:59:53.753Z,1.63
2018-06-27T18:02:22.840Z,2.30
2018-06-27T18:04:52.080Z,1.80
2018-06-27T18:07:20.541Z,1.95
2018-06-27T18:09:49.497Z,1.62
2018-06-27T18:12:19.890Z,2.22
2018-06-27T18:14:48.477Z,1.70
2018-06-27T18:17:17.798Z,2.10
2018-06-27T18:19:47.112Z,2.23
2018-06-27T18:22:15.442Z,2.10
2018-06-27T18:34:27.610Z,3.30
2018-06-27T18:36:56.934Z,1.83
2018-06-27T18:39:25.984Z,2.52
2018-06-27T18:41:54.375Z,2.20
2018-06-27T18:44:22.697Z,1.90
2018-06-27T18:46:52.446Z,2.74
2018-06-27T18:49:22.109Z,2.72
2018-06-27T18:51:51.066Z,3.15
2018-06-27T18:54:19.551Z,3.13
2018-06-27T18:56:48.495Z,2.83
2018-06-27T18:59:18.475Z,3.63
2018-06-27T19:01:51.221Z,2.45
2018-06-27T19:04:20.233Z,2.53
2018-06-27T19:06:48.895Z,3.25
2018-06-27T19:09:19.011Z,2.70
2018-06-27T19:11:53.516Z,2.67
2018-06-27T19:14:23.218Z,2.10
2018-06-27T19:16:51.809Z,1.75
2018-06-27T19:19:21.150Z,2.13
2018-06-27T19:21:49.485Z,3.20
2018-06-27T19:24:17.813Z,3.27
2018-06-27T19:26:46.136Z,2.70
2018-06-27T19:29:14.928Z,2.12
2018-06-27T19:31:51.795Z,2.30
2018-06-27T19:34:20.132Z,2.33
2018-06-27T19:36:48.386Z,2.33
2018-06-27T19:39:16.621Z,1.90
2018-06-27T19:41:48.241Z,2.27
2018-06-27T19:44:16.552Z,1.85
2018-06-27T19:46:50.288Z,2.12
2018-06-27T19:49:19.475Z,2.27
2018-06-27T19:51:47.819Z,2.40
2018-06-27T19:54:17.076Z,2.20
2018-06-27T19:56:46.438Z,2.70
2018-06-27T19:59:15.079Z,2.35
2018-06-27T20:01:44.416Z,2.02
2018-06-27T20:04:12.866Z,2.43
2018-06-27T20:06:41.555Z,2.27
2018-06-27T20:09:10.502Z,2.20
2018-06-27T20:11:39.017Z,2.40
2018-06-27T20:14:07.881Z,2.50
2018-06-27T20:16:39.782Z,2.60
2018-06-27T20:19:08.142Z,2.65
2018-06-27T20:21:36.647Z,2.86
2018-06-27T20:24:05.167Z,2.60
2018-06-27T20:26:33.514Z,3.20
2018-06-27T20:29:01.799Z,2.70
2018-06-27T20:31:33.747Z,2.65
2018-06-27T20:34:02.183Z,2.83
2018-06-27T20:36:30.837Z,3.20
2018-06-27T20:38:58.897Z,3.60
2018-06-27T20:41:27.226Z,3.10
2018-06-27T20:43:56.050Z,3.12
2018-06-27T20:46:24.424Z,3.27
2018-06-27T20:48:53.841Z,3.47
2018-06-27T20:51:22.126Z,3.90
2018-06-27T20:53:50.421Z,3.50
2018-06-27T20:56:18.456Z,3.33
2018-06-27T20:58:46.761Z,3.30
2018-06-27T21:01:15.024Z,2.87
2018-06-27T21:03:48.445Z,3.67
2018-06-27T21:06:16.993Z,3.20
2018-06-27T21:08:45.229Z,3.37
2018-06-27T21:11:13.561Z,3.22
2018-06-27T21:13:42.018Z,3.10
2018-06-27T21:16:10.365Z,2.77
2018-06-27T21:18:43.092Z,3.40
2018-06-27T21:21:11.346Z,3.93
2018-06-27T21:23:39.701Z,3.65
2018-06-27T21:26:08.002Z,3.50
2018-06-27T21:28:37.079Z,3.20
2018-06-27T21:31:05.823Z,3.00
2018-06-27T21:33:34.072Z,3.50
2018-06-27T21:36:02.334Z,3.30
2018-06-27T21:38:30.593Z,3.80
2018-06-27T21:41:01.680Z,3.37
2018-06-27T21:43:29.966Z,4.73
2018-06-27T21:45:58.333Z,3.50
2018-06-27T21:48:31.043Z,3.50
2018-06-27T21:50:59.368Z,3.20
2018-06-27T21:53:27.722Z,3.07
2018-06-27T21:55:55.982Z,3.40
2018-06-27T21:58:24.226Z,3.47
2018-06-27T22:00:53.577Z,3.95
2018-06-27T22:03:25.794Z,3.65
2018-06-27T22:05:54.118Z,3.52
2018-06-27T22:08:23.005Z,3.30
2018-06-27T22:10:51.249Z,3.50
2018-06-27T22:13:19.514Z,3.40
2018-06-27T22:15:48.110Z,3.80
2018-06-27T22:18:19.599Z,3.80
2018-06-27T22:20:48.590Z,5.40
2018-06-27T22:23:16.866Z,4.20
2018-06-27T22:25:45.141Z,3.87
2018-06-27T22:28:13.369Z,3.57
2018-06-27T22:30:41.568Z,4.80
2018-06-27T22:33:09.847Z,4.10
2018-06-27T22:35:38.073Z,4.07
2018-06-27T22:38:06.395Z,4.28
2018-06-27T22:40:34.644Z,4.20
2018-06-27T22:43:02.850Z,3.70
2018-06-27T22:45:31.049Z,3.70
2018-06-27T22:47:59.319Z,4.00
2018-06-27T22:50:27.565Z,4.40
2018-06-27T22:52:55.841Z,3.70
2018-06-27T22:55:24.146Z,4.27
2018-06-27T22:57:52.401Z,4.43
2018-06-27T23:00:22.393Z,4.60
2018-06-27T23:02:50.440Z,4.23
2018-06-27T23:05:18.432Z,4.22
2018-06-27T23:07:46.701Z,4.40
2018-06-27T23:10:14.901Z,4.10
2018-06-27T23:12:43.168Z,4.00
2018-06-27T23:15:11.444Z,4.70
2018-06-27T23:17:39.766Z,4.10
2018-06-27T23:20:07.985Z,5.23
2018-06-27T23:22:42.143Z,5.10
2018-06-27T23:25:10.480Z,4.47
2018-06-27T23:27:38.849Z,4.72
2018-06-27T23:30:07.610Z,4.27
2018-06-27T23:32:35.940Z,4.50
2018-06-27T23:35:04.305Z,4.15
2018-06-27T23:37:32.598Z,4.42
2018-06-27T23:40:01.806Z,3.97
2018-06-27T23:42:30.285Z,4.50
2018-06-27T23:44:58.565Z,4.40
2018-06-27T23:47:26.784Z,4.53
2018-06-27T23:49:58.469Z,5.07
2018-06-27T23:52:27.360Z,4.72
2018-06-27T23:54:55.585Z,5.17
2018-06-27T23:57:23.828Z,5.17
2018-06-27T23:59:52.128Z,5.33
